sensor_id;sensor_type;location;lat;lon;timestamp;pressure;altitude;pressure_sealevel;temperature;humidity
10992;BME280;5549;47.028;15.514;2023-09-19T00:01:05;96095.94;;;21.73;79.07
10992;BME280;5549;47.028;15.514;2023-09-19T00:03:33;96095.31;;;21.78;78.84
10992;BME280;5549;47.028;15.514;2023-09-19T00:06:04;96095.13;;;21.73;79.12
10992;BME280;5549;47.028;15.514;2023-09-19T00:08:33;96100.69;;;21.65;79.03
10992;BME280;5549;47.028;15.514;2023-09-19T00:11:01;96097.22;;;21.58;79.12
10992;BME280;5549;47.028;15.514;2023-09-19T00:13:29;96096.78;;;21.61;79.21
10992;BME280;5549;47.028;15.514;2023-09-19T00:15:58;96099.28;;;21.56;79.25
10992;BME280;5549;47.028;15.514;2023-09-19T00:18:28;96102.16;;;21.54;79.39
10992;BME280;5549;47.028;15.514;2023-09-19T00:21:01;96101.50;;;21.65;78.51
10992;BME280;5549;47.028;15.514;2023-09-19T00:23:33;96105.84;;;21.60;78.47
10992;BME280;5549;47.028;15.514;2023-09-19T00:26:01;96102.97;;;21.55;79.29
10992;BME280;5549;47.028;15.514;2023-09-19T00:28:30;96097.03;;;21.39;79.71
10992;BME280;5549;47.028;15.514;2023-09-19T00:30:59;96091.91;;;21.44;79.59
10992;BME280;5549;47.028;15.514;2023-09-19T00:33:28;96096.44;;;21.37;80.19
10992;BME280;5549;47.028;15.514;2023-09-19T00:35:57;96090.25;;;21.37;80.20
10992;BME280;5549;47.028;15.514;2023-09-19T00:38:24;96086.78;;;21.30;80.76
10992;BME280;5549;47.028;15.514;2023-09-19T00:40:54;96089.84;;;21.40;80.58
10992;BME280;5549;47.028;15.514;2023-09-19T00:43:23;96094.75;;;21.50;79.76
10992;BME280;5549;47.028;15.514;2023-09-19T00:45:53;96091.91;;;21.31;80.16
10992;BME280;5549;47.028;15.514;2023-09-19T00:48:24;96089.03;;;21.13;81.89
10992;BME280;5549;47.028;15.514;2023-09-19T00:50:59;96099.91;;;21.31;80.85
10992;BME280;5549;47.028;15.514;2023-09-19T00:53:31;96104.22;;;21.45;80.18
10992;BME280;5549;47.028;15.514;2023-09-19T00:56:00;96109.34;;;21.54;79.64
10992;BME280;5549;47.028;15.514;2023-09-19T00:58:29;96111.63;;;21.30;80.75
10992;BME280;5549;47.028;15.514;2023-09-19T01:01:02;96105.88;;;21.40;80.48
10992;BME280;5549;47.028;15.514;2023-09-19T01:03:37;96103.81;;;21.35;80.88
10992;BME280;5549;47.028;15.514;2023-09-19T01:06:07;96107.09;;;21.51;80.05
10992;BME280;5549;47.028;15.514;2023-09-19T01:08:35;96097.00;;;21.53;79.43
10992;BME280;5549;47.028;15.514;2023-09-19T01:11:11;96097.22;;;21.44;79.54
10992;BME280;5549;47.028;15.514;2023-09-19T01:13:54;96110.16;;;21.54;79.19
10992;BME280;5549;47.028;15.514;2023-09-19T01:16:35;96105.03;;;21.59;78.63
10992;BME280;5549;47.028;15.514;2023-09-19T01:20:08;96110.38;;;21.59;78.47
10992;BME280;5549;47.028;15.514;2023-09-19T01:22:53;96111.38;;;21.65;77.87
10992;BME280;5549;47.028;15.514;2023-09-19T01:26:21;96102.56;;;21.58;78.07
10992;BME280;5549;47.028;15.514;2023-09-19T01:29:13;96109.53;;;21.59;77.75
10992;BME280;5549;47.028;15.514;2023-09-19T01:31:47;96109.75;;;21.57;77.92
10992;BME280;5549;47.028;15.514;2023-09-19T01:34:16;96108.72;;;21.52;78.23
10992;BME280;5549;47.028;15.514;2023-09-19T01:36:44;96104.03;;;21.40;78.21
10992;BME280;5549;47.028;15.514;2023-09-19T01:39:14;96102.19;;;21.34;77.76
10992;BME280;5549;47.028;15.514;2023-09-19T01:41:56;96100.72;;;21.45;77.01
10992;BME280;5549;47.028;15.514;2023-09-19T01:44:39;96108.75;;;21.32;77.09
10992;BME280;5549;47.028;15.514;2023-09-19T01:47:19;96106.69;;;21.27;77.27
10992;BME280;5549;47.028;15.514;2023-09-19T01:49:58;96104.00;;;21.21;77.12
10992;BME280;5549;47.028;15.514;2023-09-19T01:52:32;96100.94;;;21.17;76.75
10992;BME280;5549;47.028;15.514;2023-09-19T01:55:08;96107.50;;;21.21;76.66
10992;BME280;5549;47.028;15.514;2023-09-19T01:57:48;96109.97;;;21.16;75.84
10992;BME280;5549;47.028;15.514;2023-09-19T02:00:18;96112.66;;;21.29;75.48
10992;BME280;5549;47.028;15.514;2023-09-19T02:02:52;96118.00;;;21.42;74.89
10992;BME280;5549;47.028;15.514;2023-09-19T02:05:25;96111.00;;;21.41;74.99
10992;BME280;5549;47.028;15.514;2023-09-19T02:07:54;96113.66;;;21.48;74.56
10992;BME280;5549;47.028;15.514;2023-09-19T02:10:23;96119.81;;;21.55;74.06
10992;BME280;5549;47.028;15.514;2023-09-19T02:12:52;96121.66;;;21.61;74.06
10992;BME280;5549;47.028;15.514;2023-09-19T02:15:23;96124.94;;;21.63;74.57
10992;BME280;5549;47.028;15.514;2023-09-19T02:17:54;96129.25;;;21.64;74.52
10992;BME280;5549;47.028;15.514;2023-09-19T02:20:29;96135.03;;;21.61;74.89
10992;BME280;5549;47.028;15.514;2023-09-19T02:23:04;96140.78;;;21.65;74.87
10992;BME280;5549;47.028;15.514;2023-09-19T02:25:32;96149.63;;;21.32;76.22
10992;BME280;5549;47.028;15.514;2023-09-19T02:28:01;96151.91;;;21.29;76.24
10992;BME280;5549;47.028;15.514;2023-09-19T02:30:30;96151.91;;;21.22;76.61
10992;BME280;5549;47.028;15.514;2023-09-19T02:33:01;96134.84;;;21.36;75.90
10992;BME280;5549;47.028;15.514;2023-09-19T02:35:31;96144.50;;;21.24;76.24
10992;BME280;5549;47.028;15.514;2023-09-19T02:38:03;96145.91;;;21.13;76.47
10992;BME280;5549;47.028;15.514;2023-09-19T02:40:34;96148.00;;;21.31;75.49
10992;BME280;5549;47.028;15.514;2023-09-19T02:43:03;96155.19;;;21.37;75.72
10992;BME280;5549;47.028;15.514;2023-09-19T02:45:33;96162.38;;;21.37;75.55
10992;BME280;5549;47.028;15.514;2023-09-19T02:48:03;96158.69;;;21.31;75.16
10992;BME280;5549;47.028;15.514;2023-09-19T02:50:31;96165.88;;;21.31;74.89
10992;BME280;5549;47.028;15.514;2023-09-19T02:53:00;96169.94;;;21.13;75.58
10992;BME280;5549;47.028;15.514;2023-09-19T02:55:30;96170.34;;;21.17;75.29
10992;BME280;5549;47.028;15.514;2023-09-19T02:57:58;96172.19;;;21.17;74.98
10992;BME280;5549;47.028;15.514;2023-09-19T03:00:27;96176.69;;;20.96;75.16
10992;BME280;5549;47.028;15.514;2023-09-19T03:02:55;96185.94;;;20.94;74.08
10992;BME280;5549;47.028;15.514;2023-09-19T03:05:27;96176.47;;;20.85;73.10
10992;BME280;5549;47.028;15.514;2023-09-19T03:07:57;96178.53;;;20.83;71.12
10992;BME280;5549;47.028;15.514;2023-09-19T03:10:29;96187.19;;;20.98;70.52
10992;BME280;5549;47.028;15.514;2023-09-19T03:12:58;96185.50;;;20.84;70.96
10992;BME280;5549;47.028;15.514;2023-09-19T03:15:26;96196.19;;;20.84;70.87
10992;BME280;5549;47.028;15.514;2023-09-19T03:17:53;96195.31;;;20.76;70.46
10992;BME280;5549;47.028;15.514;2023-09-19T03:20:21;96205.97;;;20.76;69.64
10992;BME280;5549;47.028;15.514;2023-09-19T03:22:51;96199.81;;;20.69;69.94
10992;BME280;5549;47.028;15.514;2023-09-19T03:25:19;96206.81;;;20.77;69.71
10992;BME280;5549;47.028;15.514;2023-09-19T03:27:49;96211.38;;;20.83;69.96
10992;BME280;5549;47.028;15.514;2023-09-19T03:30:17;96213.78;;;20.71;69.46
10992;BME280;5549;47.028;15.514;2023-09-19T03:32:48;96213.09;;;20.56;69.67
10992;BME280;5549;47.028;15.514;2023-09-19T03:35:16;96209.16;;;20.45;69.69
10992;BME280;5549;47.028;15.514;2023-09-19T03:37:46;96212.06;;;20.50;69.72
10992;BME280;5549;47.028;15.514;2023-09-19T03:40:16;96211.53;;;20.34;69.65
10992;BME280;5549;47.028;15.514;2023-09-19T03:42:43;96211.41;;;20.42;69.66
10992;BME280;5549;47.028;15.514;2023-09-19T03:45:11;96213.13;;;20.63;69.03
10992;BME280;5549;47.028;15.514;2023-09-19T03:47:41;96217.88;;;20.67;69.17
10992;BME280;5549;47.028;15.514;2023-09-19T03:50:11;96220.94;;;20.64;70.31
10992;BME280;5549;47.028;15.514;2023-09-19T03:52:44;96225.88;;;20.67;70.95
10992;BME280;5549;47.028;15.514;2023-09-19T03:55:11;96220.75;;;20.72;71.83
10992;BME280;5549;47.028;15.514;2023-09-19T03:57:40;96214.78;;;20.64;72.00
10992;BME280;5549;47.028;15.514;2023-09-19T04:00:11;96210.69;;;20.74;71.17
10992;BME280;5549;47.028;15.514;2023-09-19T04:02:43;96218.69;;;20.74;70.86
10992;BME280;5549;47.028;15.514;2023-09-19T04:05:12;96216.25;;;20.79;71.50
10992;BME280;5549;47.028;15.514;2023-09-19T04:07:42;96216.91;;;20.81;71.73
10992;BME280;5549;47.028;15.514;2023-09-19T04:10:10;96219.19;;;20.85;71.40
10992;BME280;5549;47.028;15.514;2023-09-19T04:12:39;96221.84;;;20.85;71.59
10992;BME280;5549;47.028;15.514;2023-09-19T04:15:10;96230.69;;;20.85;71.84
10992;BME280;5549;47.028;15.514;2023-09-19T04:17:42;96229.38;;;20.74;71.98
10992;BME280;5549;47.028;15.514;2023-09-19T04:20:12;96242.56;;;20.83;71.92
10992;BME280;5549;47.028;15.514;2023-09-19T04:22:39;96236.63;;;20.80;72.42
10992;BME280;5549;47.028;15.514;2023-09-19T04:25:08;96247.91;;;20.83;71.68
10992;BME280;5549;47.028;15.514;2023-09-19T04:27:35;96249.97;;;20.80;72.08
10992;BME280;5549;47.028;15.514;2023-09-19T04:30:09;96256.28;;;20.79;72.39
10992;BME280;5549;47.028;15.514;2023-09-19T04:32:38;96254.44;;;20.80;72.62
10992;BME280;5549;47.028;15.514;2023-09-19T04:35:09;96256.94;;;20.81;72.69
10992;BME280;5549;47.028;15.514;2023-09-19T04:37:38;96264.94;;;20.81;72.75
10992;BME280;5549;47.028;15.514;2023-09-19T04:40:09;96266.78;;;20.81;73.70
10992;BME280;5549;47.028;15.514;2023-09-19T04:42:41;96272.97;;;20.81;73.35
10992;BME280;5549;47.028;15.514;2023-09-19T04:45:12;96285.47;;;20.81;74.29
10992;BME280;5549;47.028;15.514;2023-09-19T04:47:43;96286.66;;;20.78;74.53
10992;BME280;5549;47.028;15.514;2023-09-19T04:50:18;96289.34;;;20.78;74.26
10992;BME280;5549;47.028;15.514;2023-09-19T04:52:46;96286.66;;;20.78;74.16
10992;BME280;5549;47.028;15.514;2023-09-19T04:55:17;96291.81;;;20.80;74.07
10992;BME280;5549;47.028;15.514;2023-09-19T04:57:49;96293.84;;;20.78;74.66
10992;BME280;5549;47.028;15.514;2023-09-19T05:00:20;96289.72;;;20.75;75.20
10992;BME280;5549;47.028;15.514;2023-09-19T05:02:52;96291.38;;;20.76;75.00
10992;BME280;5549;47.028;15.514;2023-09-19T05:05:21;96294.44;;;20.73;75.56
10992;BME280;5549;47.028;15.514;2023-09-19T05:07:50;96306.16;;;20.72;75.89
10992;BME280;5549;47.028;15.514;2023-09-19T05:10:22;96303.88;;;20.69;75.90
10992;BME280;5549;47.028;15.514;2023-09-19T05:12:53;96302.84;;;20.70;76.28
10992;BME280;5549;47.028;15.514;2023-09-19T05:15:24;96300.75;;;20.59;76.82
10992;BME280;5549;47.028;15.514;2023-09-19T05:17:53;96306.88;;;20.53;77.07
10992;BME280;5549;47.028;15.514;2023-09-19T05:20:21;96302.28;;;20.40;77.68
10992;BME280;5549;47.028;15.514;2023-09-19T05:22:59;96308.03;;;20.44;77.73
10992;BME280;5549;47.028;15.514;2023-09-19T05:25:32;96313.00;;;20.47;77.71
10992;BME280;5549;47.028;15.514;2023-09-19T05:28:06;96313.97;;;20.39;78.50
10992;BME280;5549;47.028;15.514;2023-09-19T05:30:35;96310.59;;;20.31;78.90
10992;BME280;5549;47.028;15.514;2023-09-19T05:33:06;96312.34;;;20.17;79.52
10992;BME280;5549;47.028;15.514;2023-09-19T05:35:37;96312.41;;;20.24;78.91
10992;BME280;5549;47.028;15.514;2023-09-19T05:38:05;96312.22;;;20.25;78.48
10992;BME280;5549;47.028;15.514;2023-09-19T05:40:37;96316.47;;;20.19;79.03
10992;BME280;5549;47.028;15.514;2023-09-19T05:43:05;96318.13;;;20.21;79.14
10992;BME280;5549;47.028;15.514;2023-09-19T05:45:34;96309.69;;;20.17;79.51
10992;BME280;5549;47.028;15.514;2023-09-19T05:48:10;96320.75;;;20.14;80.14
10992;BME280;5549;47.028;15.514;2023-09-19T05:50:38;96311.16;;;20.19;80.07
10992;BME280;5549;47.028;15.514;2023-09-19T05:53:06;96309.50;;;20.18;80.17
10992;BME280;5549;47.028;15.514;2023-09-19T05:55:34;96314.84;;;20.18;80.83
10992;BME280;5549;47.028;15.514;2023-09-19T05:58:04;96310.38;;;20.26;80.92
10992;BME280;5549;47.028;15.514;2023-09-19T06:00:35;96319.81;;;20.00;82.81
10992;BME280;5549;47.028;15.514;2023-09-19T06:03:03;96315.59;;;20.12;81.96
10992;BME280;5549;47.028;15.514;2023-09-19T06:05:33;96317.94;;;20.22;81.83
10992;BME280;5549;47.028;15.514;2023-09-19T06:08:04;96324.97;;;20.30;82.78
10992;BME280;5549;47.028;15.514;2023-09-19T06:10:34;96325.19;;;20.35;83.11
10992;BME280;5549;47.028;15.514;2023-09-19T06:13:02;96331.03;;;20.45;82.71
10992;BME280;5549;47.028;15.514;2023-09-19T06:15:31;96329.47;;;20.57;82.15
10992;BME280;5549;47.028;15.514;2023-09-19T06:18:11;96332.16;;;20.64;81.57
10992;BME280;5549;47.028;15.514;2023-09-19T06:20:41;96337.72;;;20.69;81.80
10992;BME280;5549;47.028;15.514;2023-09-19T06:23:13;96341.06;;;20.77;81.23
10992;BME280;5549;47.028;15.514;2023-09-19T06:25:41;96346.03;;;20.80;81.46
10992;BME280;5549;47.028;15.514;2023-09-19T06:28:11;96347.28;;;20.85;81.29
10992;BME280;5549;47.028;15.514;2023-09-19T06:30:39;96348.75;;;20.87;80.80
10992;BME280;5549;47.028;15.514;2023-09-19T06:33:11;96353.66;;;20.84;81.12
10992;BME280;5549;47.028;15.514;2023-09-19T06:35:39;96354.28;;;20.86;81.02
10992;BME280;5549;47.028;15.514;2023-09-19T06:38:08;96358.81;;;20.92;81.49
10992;BME280;5549;47.028;15.514;2023-09-19T06:40:39;96364.22;;;21.05;80.73
10992;BME280;5549;47.028;15.514;2023-09-19T06:43:10;96362.22;;;21.20;80.21
10992;BME280;5549;47.028;15.514;2023-09-19T06:45:38;96367.63;;;21.27;79.89
10992;BME280;5549;47.028;15.514;2023-09-19T06:48:07;96372.38;;;21.38;79.24
10992;BME280;5549;47.028;15.514;2023-09-19T06:50:37;96374.28;;;21.51;78.91
10992;BME280;5549;47.028;15.514;2023-09-19T06:53:07;96383.75;;;21.60;78.44
10992;BME280;5549;47.028;15.514;2023-09-19T06:55:36;96396.31;;;21.66;78.37
10992;BME280;5549;47.028;15.514;2023-09-19T06:58:05;96405.56;;;21.70;78.25
10992;BME280;5549;47.028;15.514;2023-09-19T07:00:36;96406.81;;;21.81;77.62
10992;BME280;5549;47.028;15.514;2023-09-19T07:03:08;96411.75;;;21.84;77.40
10992;BME280;5549;47.028;15.514;2023-09-19T07:05:41;96410.97;;;21.96;76.95
10992;BME280;5549;47.028;15.514;2023-09-19T07:08:11;96406.47;;;22.03;76.81
10992;BME280;5549;47.028;15.514;2023-09-19T07:10:39;96421.50;;;22.18;76.43
10992;BME280;5549;47.028;15.514;2023-09-19T07:13:08;96418.63;;;22.26;76.40
10992;BME280;5549;47.028;15.514;2023-09-19T07:15:39;96416.56;;;22.34;76.07
10992;BME280;5549;47.028;15.514;2023-09-19T07:18:13;96419.66;;;22.38;75.59
10992;BME280;5549;47.028;15.514;2023-09-19T07:20:46;96427.06;;;22.36;75.24
10992;BME280;5549;47.028;15.514;2023-09-19T07:25:44;96437.97;;;22.34;74.87
10992;BME280;5549;47.028;15.514;2023-09-19T07:28:15;96432.63;;;22.41;74.38
10992;BME280;5549;47.028;15.514;2023-09-19T07:30:42;96440.25;;;22.31;74.89
10992;BME280;5549;47.028;15.514;2023-09-19T07:33:12;96448.88;;;22.20;74.86
10992;BME280;5549;47.028;15.514;2023-09-19T07:35:44;96456.06;;;22.13;74.77
10992;BME280;5549;47.028;15.514;2023-09-19T07:38:13;96460.81;;;22.17;74.70
10992;BME280;5549;47.028;15.514;2023-09-19T07:40:41;96464.50;;;22.16;75.26
10992;BME280;5549;47.028;15.514;2023-09-19T07:43:10;96463.28;;;22.19;74.92
10992;BME280;5549;47.028;15.514;2023-09-19T07:45:38;96468.84;;;22.24;74.91
10992;BME280;5549;47.028;15.514;2023-09-19T07:48:08;96464.09;;;22.26;74.96
10992;BME280;5549;47.028;15.514;2023-09-19T07:50:40;96468.41;;;22.14;75.37
10992;BME280;5549;47.028;15.514;2023-09-19T07:53:13;96473.75;;;22.07;75.57
10992;BME280;5549;47.028;15.514;2023-09-19T07:55:43;96474.38;;;22.16;75.25
10992;BME280;5549;47.028;15.514;2023-09-19T07:58:16;96466.06;;;21.84;75.03
10992;BME280;5549;47.028;15.514;2023-09-19T08:00:43;96461.53;;;21.91;75.71
10992;BME280;5549;47.028;15.514;2023-09-19T08:03:14;96472.50;;;22.09;75.61
10992;BME280;5549;47.028;15.514;2023-09-19T08:05:42;96485.06;;;22.02;76.81
10992;BME280;5549;47.028;15.514;2023-09-19T08:08:15;96488.69;;;21.95;77.28
10992;BME280;5549;47.028;15.514;2023-09-19T08:10:42;96486.72;;;22.10;76.67
10992;BME280;5549;47.028;15.514;2023-09-19T08:13:11;96483.84;;;22.25;75.70
10992;BME280;5549;47.028;15.514;2023-09-19T08:15:44;96502.84;;;21.82;75.00
10992;BME280;5549;47.028;15.514;2023-09-19T08:18:11;96498.69;;;22.27;75.93
10992;BME280;5549;47.028;15.514;2023-09-19T08:20:42;96492.50;;;22.33;74.75
10992;BME280;5549;47.028;15.514;2023-09-19T08:23:16;96500.34;;;22.41;73.34
10992;BME280;5549;47.028;15.514;2023-09-19T08:25:44;96499.09;;;22.31;74.61
10992;BME280;5549;47.028;15.514;2023-09-19T08:28:13;96504.50;;;22.70;73.09
10992;BME280;5549;47.028;15.514;2023-09-19T08:30:48;96499.59;;;22.81;72.63
10992;BME280;5549;47.028;15.514;2023-09-19T08:33:16;96501.81;;;23.10;72.00
10992;BME280;5549;47.028;15.514;2023-09-19T08:35:44;96501.59;;;23.25;69.42
10992;BME280;5549;47.028;15.514;2023-09-19T08:38:15;96503.38;;;23.44;67.55
10992;BME280;5549;47.028;15.514;2023-09-19T08:40:45;96500.00;;;23.75;64.65
10992;BME280;5549;47.028;15.514;2023-09-19T08:43:15;96500.13;;;23.93;66.16
10992;BME280;5549;47.028;15.514;2023-09-19T08:45:45;96505.16;;;24.15;63.03
10992;BME280;5549;47.028;15.514;2023-09-19T08:48:24;96508.75;;;24.02;63.95
10992;BME280;5549;47.028;15.514;2023-09-19T08:51:00;96511.75;;;24.19;63.48
10992;BME280;5549;47.028;15.514;2023-09-19T08:53:40;96509.34;;;24.04;62.12
10992;BME280;5549;47.028;15.514;2023-09-19T08:56:12;96512.63;;;23.68;62.23
10992;BME280;5549;47.028;15.514;2023-09-19T08:58:48;96508.00;;;23.88;61.77
10992;BME280;5549;47.028;15.514;2023-09-19T09:01:21;96516.06;;;24.33;61.77
10992;BME280;5549;47.028;15.514;2023-09-19T09:03:52;96512.75;;;24.62;62.35
10992;BME280;5549;47.028;15.514;2023-09-19T09:06:24;96516.88;;;24.90;59.75
10992;BME280;5549;47.028;15.514;2023-09-19T09:08:56;96516.34;;;25.06;60.36
10992;BME280;5549;47.028;15.514;2023-09-19T09:11:23;96522.38;;;25.02;59.99
10992;BME280;5549;47.028;15.514;2023-09-19T09:13:52;96525.78;;;25.15;57.93
10992;BME280;5549;47.028;15.514;2023-09-19T09:16:22;96516.16;;;25.26;57.06
10992;BME280;5549;47.028;15.514;2023-09-19T09:18:52;96515.56;;;25.61;57.97
10992;BME280;5549;47.028;15.514;2023-09-19T09:21:20;96515.31;;;25.69;59.00
10992;BME280;5549;47.028;15.514;2023-09-19T09:23:49;96518.06;;;25.80;58.14
10992;BME280;5549;47.028;15.514;2023-09-19T09:26:42;96532.09;;;25.64;56.47
10992;BME280;5549;47.028;15.514;2023-09-19T09:29:10;96528.22;;;25.78;56.24
10992;BME280;5549;47.028;15.514;2023-09-19T09:31:38;96534.38;;;25.24;56.94
10992;BME280;5549;47.028;15.514;2023-09-19T09:34:08;96528.56;;;25.27;58.74
10992;BME280;5549;47.028;15.514;2023-09-19T09:36:40;96521.31;;;25.46;58.21
10992;BME280;5549;47.028;15.514;2023-09-19T09:39:08;96521.78;;;25.43;56.43
10992;BME280;5549;47.028;15.514;2023-09-19T09:41:46;96535.00;;;25.44;57.89
10992;BME280;5549;47.028;15.514;2023-09-19T09:44:16;96528.78;;;25.25;57.75
10992;BME280;5549;47.028;15.514;2023-09-19T09:46:46;96531.38;;;25.14;59.01
10992;BME280;5549;47.028;15.514;2023-09-19T09:49:33;96534.56;;;25.04;59.56
10992;BME280;5549;47.028;15.514;2023-09-19T09:52:04;96537.41;;;24.53;59.55
10992;BME280;5549;47.028;15.514;2023-09-19T09:54:36;96544.63;;;24.84;58.55
10992;BME280;5549;47.028;15.514;2023-09-19T09:57:07;96532.38;;;24.88;58.70
10992;BME280;5549;47.028;15.514;2023-09-19T09:59:49;96535.31;;;25.11;58.34
10992;BME280;5549;47.028;15.514;2023-09-19T10:02:18;96532.41;;;25.13;57.94
10992;BME280;5549;47.028;15.514;2023-09-19T10:04:51;96541.72;;;25.10;57.04
10992;BME280;5549;47.028;15.514;2023-09-19T10:07:26;96541.44;;;25.18;56.82
10992;BME280;5549;47.028;15.514;2023-09-19T10:10:05;96544.03;;;25.07;58.14
10992;BME280;5549;47.028;15.514;2023-09-19T10:12:55;96547.47;;;25.39;57.00
10992;BME280;5549;47.028;15.514;2023-09-19T10:15:25;96546.50;;;25.08;54.38
10992;BME280;5549;47.028;15.514;2023-09-19T10:17:56;96542.63;;;24.73;55.19
10992;BME280;5549;47.028;15.514;2023-09-19T10:20:25;96547.72;;;25.12;57.07
10992;BME280;5549;47.028;15.514;2023-09-19T10:23:09;96545.56;;;25.21;57.09
10992;BME280;5549;47.028;15.514;2023-09-19T10:25:41;96549.22;;;25.26;54.37
10992;BME280;5549;47.028;15.514;2023-09-19T10:28:14;96543.25;;;25.68;55.34
10992;BME280;5549;47.028;15.514;2023-09-19T10:30:43;96550.50;;;25.67;53.49
10992;BME280;5549;47.028;15.514;2023-09-19T10:33:15;96549.22;;;26.06;55.39
10992;BME280;5549;47.028;15.514;2023-09-19T10:35:47;96546.88;;;26.28;54.16
10992;BME280;5549;47.028;15.514;2023-09-19T10:38:18;96553.03;;;25.99;52.56
10992;BME280;5549;47.028;15.514;2023-09-19T10:40:50;96545.66;;;26.42;52.12
10992;BME280;5549;47.028;15.514;2023-09-19T10:43:30;96546.00;;;26.76;51.78
10992;BME280;5549;47.028;15.514;2023-09-19T10:46:02;96538.78;;;26.46;49.86
10992;BME280;5549;47.028;15.514;2023-09-19T10:48:32;96542.16;;;26.42;50.72
10992;BME280;5549;47.028;15.514;2023-09-19T10:51:05;96543.91;;;26.18;52.82
10992;BME280;5549;47.028;15.514;2023-09-19T10:53:45;96543.16;;;25.93;53.43
10992;BME280;5549;47.028;15.514;2023-09-19T10:56:25;96538.69;;;25.86;52.92
10992;BME280;5549;47.028;15.514;2023-09-19T10:59:09;96538.25;;;26.08;53.47
10992;BME280;5549;47.028;15.514;2023-09-19T11:01:46;96536.88;;;25.99;53.47
10992;BME280;5549;47.028;15.514;2023-09-19T11:04:26;96531.56;;;25.92;53.98
10992;BME280;5549;47.028;15.514;2023-09-19T11:07:04;96526.72;;;25.82;51.85
10992;BME280;5549;47.028;15.514;2023-09-19T11:09:45;96522.38;;;25.63;52.99
10992;BME280;5549;47.028;15.514;2023-09-19T11:12:50;96534.72;;;26.07;53.14
10992;BME280;5549;47.028;15.514;2023-09-19T11:18:55;96529.41;;;26.19;53.82
10992;BME280;5549;47.028;15.514;2023-09-19T11:21:54;96532.78;;;26.44;51.94
10992;BME280;5549;47.028;15.514;2023-09-19T11:24:29;96527.72;;;26.36;49.02
10992;BME280;5549;47.028;15.514;2023-09-19T11:27:15;96527.28;;;26.39;48.51
10992;BME280;5549;47.028;15.514;2023-09-19T11:29:44;96526.84;;;26.54;48.88
10992;BME280;5549;47.028;15.514;2023-09-19T11:32:13;96523.34;;;26.53;48.24
10992;BME280;5549;47.028;15.514;2023-09-19T11:34:49;96517.75;;;26.78;49.44
10992;BME280;5549;47.028;15.514;2023-09-19T11:37:59;96520.91;;;26.75;47.34
10992;BME280;5549;47.028;15.514;2023-09-19T11:40:38;96518.53;;;26.97;46.13
10992;BME280;5549;47.028;15.514;2023-09-19T11:43:29;96520.28;;;27.03;47.37
10992;BME280;5549;47.028;15.514;2023-09-19T11:46:06;96513.94;;;26.98;45.55
10992;BME280;5549;47.028;15.514;2023-09-19T11:48:35;96520.06;;;27.05;46.42
10992;BME280;5549;47.028;15.514;2023-09-19T11:51:17;96514.59;;;26.81;46.82
10992;BME280;5549;47.028;15.514;2023-09-19T11:53:55;96510.56;;;27.26;45.06
10992;BME280;5549;47.028;15.514;2023-09-19T11:56:24;96512.50;;;26.83;46.95
10992;BME280;5549;47.028;15.514;2023-09-19T11:58:55;96511.25;;;26.98;45.71
10992;BME280;5549;47.028;15.514;2023-09-19T12:01:30;96514.78;;;27.22;44.15
10992;BME280;5549;47.028;15.514;2023-09-19T12:04:02;96507.47;;;27.57;42.40
10992;BME280;5549;47.028;15.514;2023-09-19T12:06:32;96510.31;;;27.62;42.39
10992;BME280;5549;47.028;15.514;2023-09-19T12:09:03;96501.59;;;27.72;41.95
10992;BME280;5549;47.028;15.514;2023-09-19T12:11:42;96500.94;;;27.76;41.52
10992;BME280;5549;47.028;15.514;2023-09-19T12:14:10;96501.63;;;27.60;40.46
10992;BME280;5549;47.028;15.514;2023-09-19T12:16:38;96497.16;;;27.77;42.72
10992;BME280;5549;47.028;15.514;2023-09-19T12:19:18;96494.38;;;27.26;42.63
10992;BME280;5549;47.028;15.514;2023-09-19T12:21:57;96490.00;;;27.48;41.31
10992;BME280;5549;47.028;15.514;2023-09-19T12:24:26;96492.09;;;27.58;43.08
10992;BME280;5549;47.028;15.514;2023-09-19T12:27:01;96489.94;;;27.20;42.14
10992;BME280;5549;47.028;15.514;2023-09-19T12:29:31;96491.69;;;27.02;43.19
10992;BME280;5549;47.028;15.514;2023-09-19T12:32:00;96497.84;;;26.79;45.04
10992;BME280;5549;47.028;15.514;2023-09-19T12:34:32;96496.09;;;26.97;44.92
10992;BME280;5549;47.028;15.514;2023-09-19T12:37:08;96493.63;;;26.72;43.36
10992;BME280;5549;47.028;15.514;2023-09-19T12:39:39;96498.72;;;27.15;42.94
10992;BME280;5549;47.028;15.514;2023-09-19T12:42:11;96498.84;;;27.08;43.82
10992;BME280;5549;47.028;15.514;2023-09-19T12:44:42;96502.13;;;27.10;43.95
10992;BME280;5549;47.028;15.514;2023-09-19T12:47:15;96503.28;;;27.14;44.75
10992;BME280;5549;47.028;15.514;2023-09-19T12:50:08;96504.00;;;26.98;42.83
10992;BME280;5549;47.028;15.514;2023-09-19T12:52:45;96499.06;;;27.19;43.12
10992;BME280;5549;47.028;15.514;2023-09-19T12:55:24;96502.47;;;27.37;43.06
10992;BME280;5549;47.028;15.514;2023-09-19T12:58:01;96500.13;;;27.41;42.95
10992;BME280;5549;47.028;15.514;2023-09-19T13:00:33;96501.78;;;27.19;43.76
10992;BME280;5549;47.028;15.514;2023-09-19T13:03:16;96500.38;;;27.16;44.76
10992;BME280;5549;47.028;15.514;2023-09-19T13:05:55;96509.97;;;27.12;45.36
10992;BME280;5549;47.028;15.514;2023-09-19T13:08:27;96512.44;;;27.13;45.93
10992;BME280;5549;47.028;15.514;2023-09-19T13:11:10;96520.75;;;27.00;45.00
10992;BME280;5549;47.028;15.514;2023-09-19T13:13:44;96514.72;;;26.75;44.61
10992;BME280;5549;47.028;15.514;2023-09-19T13:16:15;96508.88;;;26.78;44.89
10992;BME280;5549;47.028;15.514;2023-09-19T13:18:48;96514.47;;;26.65;46.01
10992;BME280;5549;47.028;15.514;2023-09-19T13:21:32;96508.13;;;26.59;45.46
10992;BME280;5549;47.028;15.514;2023-09-19T13:24:19;96513.78;;;26.81;45.32
10992;BME280;5549;47.028;15.514;2023-09-19T13:26:47;96512.66;;;27.00;45.71
10992;BME280;5549;47.028;15.514;2023-09-19T13:29:15;96505.16;;;27.02;45.40
10992;BME280;5549;47.028;15.514;2023-09-19T13:31:46;96515.66;;;26.92;47.38
10992;BME280;5549;47.028;15.514;2023-09-19T13:34:14;96510.72;;;26.66;46.09